Time;durP1;ratioP1;P1;durP2;ratioP2;P2;SDS_P1;SDS_P2;PMS_P1;PMS_P2;Temp;Humidity;BMP_temperature;BMP_pressure;BME280_temperature;BME280_humidity;BME280_pressure;Samples;Min_cycle;Max_cycle;Signal;HPM_P1;HPM_P2
2022/11/02 00:01:20;;;;;;;;;1.00;0.00;;;;;14.24;62.67;101660.13;4975399;28;45475;-76
2022/11/02 00:03:46;;;;;;;;;2.50;0.00;;;;;14.23;62.98;101658.44;4958909;28;45421;-76
2022/11/02 00:06:12;;;;;;;;;1.00;0.00;;;;;14.18;64.05;101656.84;4976268;28;45514;-76
2022/11/02 00:08:37;;;;;;;;;1.00;0.00;;;;;14.18;63.95;101659.47;4976371;28;45409;-75
2022/11/02 00:11:02;;;;;;;;;1.75;1.00;;;;;14.13;64.21;101652.63;4957866;28;64010;-75
2022/11/02 00:13:28;;;;;;;;;4.50;0.75;;;;;14.14;64.76;101656.94;4958227;28;56531;-75
2022/11/02 00:15:53;;;;;;;;;3.00;1.00;;;;;14.14;64.94;101661.31;4976017;28;46063;-75
2022/11/02 00:18:19;;;;;;;;;0.00;0.00;;;;;14.09;65.36;101665.81;4974985;28;45401;-75
2022/11/02 00:20:44;;;;;;;;;0.50;0.50;;;;;14.07;65.52;101675.47;4957942;28;68282;-75
2022/11/02 00:23:12;;;;;;;;;3.00;0.00;;;;;14.05;65.81;101672.06;4975255;28;69560;-76
2022/11/02 00:25:45;;;;;;;;;0.00;0.00;;;;;14.01;65.98;101675.66;4974625;28;46373;-76
2022/11/02 00:28:11;;;;;;;;;0.50;0.50;;;;;13.99;66.24;101673.09;4974790;28;45636;-76
2022/11/02 00:30:37;;;;;;;;;4.50;1.00;;;;;13.97;66.54;101682.75;4975062;28;45523;-76
2022/11/02 00:33:02;;;;;;;;;1.25;0.75;;;;;13.95;66.08;101684.56;4975833;28;50122;-76
2022/11/02 00:35:27;;;;;;;;;0.00;0.00;;;;;13.93;66.23;101689.81;4975816;28;45843;-76
2022/11/02 00:37:53;;;;;;;;;0.00;0.00;;;;;13.90;66.43;101696.91;4975770;28;51139;-76
2022/11/02 00:40:18;;;;;;;;;1.25;0.75;;;;;13.89;66.69;101703.91;4975206;28;49524;-76
2022/11/02 00:42:44;;;;;;;;;1.00;0.00;;;;;13.88;66.55;101702.19;4976045;28;45537;-76
2022/11/02 00:45:09;;;;;;;;;3.25;0.00;;;;;13.86;66.48;101709.22;4975277;28;63238;-76
2022/11/02 00:47:34;;;;;;;;;1.00;0.00;;;;;13.85;66.27;101706.63;4975942;28;45448;-75
2022/11/02 00:50:00;;;;;;;;;2.00;0.00;;;;;13.83;66.56;101704.06;4976140;28;45362;-75
2022/11/02 00:52:25;;;;;;;;;1.50;0.50;;;;;13.83;66.41;101701.44;4973873;28;62765;-76
2022/11/02 00:54:50;;;;;;;;;3.00;0.50;;;;;13.81;66.20;101708.47;4977115;28;45507;-75
2022/11/02 00:57:16;;;;;;;;;1.00;0.00;;;;;13.80;66.11;101711.13;4986102;28;45756;-76
2022/11/02 00:59:41;;;;;;;;;2.00;0.00;;;;;13.78;66.03;101720.78;4960831;28;68134;-76
2022/11/02 01:02:06;;;;;;;;;1.25;0.25;;;;;13.77;66.05;101712.06;4978398;28;66126;-75
2022/11/02 01:04:32;;;;;;;;;1.25;0.00;;;;;13.78;65.60;101726.00;4978962;28;46857;-75
2022/11/02 01:06:57;;;;;;;;;3.50;0.50;;;;;13.76;65.34;101728.66;4993411;28;68334;-75
2022/11/02 01:09:23;;;;;;;;;2.00;1.00;;;;;13.71;65.27;101726.19;4993205;28;65386;-76
2022/11/02 01:11:48;;;;;;;;;1.00;1.00;;;;;13.68;64.81;101728.88;4994206;28;45444;-75
2022/11/02 01:14:14;;;;;;;;;1.75;0.00;;;;;13.70;65.02;101723.59;4978858;28;46065;-76
2022/11/02 01:16:40;;;;;;;;;3.75;0.00;;;;;13.67;64.78;101732.41;4978766;28;45480;-76
2022/11/02 01:19:06;;;;;;;;;1.50;1.00;;;;;13.63;64.98;101725.53;4978966;28;45372;-74
2022/11/02 01:21:31;;;;;;;;;0.25;0.25;;;;;13.62;65.11;101721.19;4961556;28;45346;-76
2022/11/02 01:23:57;;;;;;;;;1.50;0.00;;;;;13.63;65.18;101733.38;4993546;28;46225;-75
2022/11/02 01:26:22;;;;;;;;;3.50;1.00;;;;;13.62;65.11;101731.66;4993791;28;45333;-75
2022/11/02 01:28:47;;;;;;;;;0.50;0.00;;;;;13.59;64.83;101738.72;4977769;28;69744;-75
2022/11/02 01:31:13;;;;;;;;;2.75;0.25;;;;;13.56;65.40;101734.44;4993368;28;61941;-76
2022/11/02 01:33:43;;;;;;;;;6.75;1.00;;;;;13.57;66.01;101746.59;4977987;28;63248;-76
2022/11/02 01:36:11;;;;;;;;;1.50;0.00;;;;;13.54;65.42;101736.22;4960979;28;45270;-75
2022/11/02 01:38:36;;;;;;;;;1.00;1.00;;;;;13.52;65.19;101732.78;4960782;28;45386;-75
2022/11/02 01:41:01;;;;;;;;;3.50;1.00;;;;;13.51;65.66;101741.53;4993742;28;45359;-75
2022/11/02 01:43:33;;;;;;;;;4.75;1.00;;;;;13.46;65.85;101741.63;4977454;28;73729;-75
2022/11/02 01:46:12;;;;;;;;;2.00;1.00;;;;;13.48;65.61;101744.22;4978516;28;45412;-75
2022/11/02 01:48:56;;;;;;;;;0.50;0.50;;;;;13.45;65.54;101746.94;4961246;28;45345;-75
2022/11/02 01:51:26;;;;;;;;;1.75;0.00;;;;;13.43;65.96;101751.31;4961157;28;45487;-75
2022/11/02 01:53:55;;;;;;;;;2.75;1.00;;;;;13.41;65.82;101754.00;4960337;28;46083;-75
2022/11/02 01:56:22;;;;;;;;;1.00;1.00;;;;;13.38;66.06;101754.06;4960675;28;45288;-75
2022/11/02 01:58:53;;;;;;;;;1.25;0.00;;;;;13.33;66.30;101748.94;4960961;28;45405;-75
2022/11/02 02:01:18;;;;;;;;;3.00;0.00;;;;;13.33;66.28;101762.03;4977214;28;45382;-76
2022/11/02 02:03:45;;;;;;;;;4.50;0.75;;;;;13.32;66.53;101762.91;4959790;28;70612;-76
2022/11/02 02:06:14;;;;;;;;;2.00;0.00;;;;;13.30;66.15;101761.19;4975522;28;72704;-76
2022/11/02 02:08:45;;;;;;;;;3.00;1.00;;;;;13.28;66.61;101758.63;4977081;28;63476;-75
2022/11/02 02:11:28;;;;;;;;;1.00;0.00;;;;;13.27;66.31;101762.13;4977102;28;45444;-75
2022/11/02 02:14:02;;;;;;;;;3.00;1.00;;;;;13.22;66.52;101771.81;4977911;28;46389;-75
2022/11/02 02:16:39;;;;;;;;;2.00;1.00;;;;;13.20;66.47;101778.84;4976677;28;45972;-75
2022/11/02 02:19:30;;;;;;;;;1.75;0.00;;;;;13.19;66.49;101779.75;4978057;28;45513;-75
2022/11/02 02:22:13;;;;;;;;;2.25;0.00;;;;;13.16;67.03;101783.28;4977810;28;45349;-76
2022/11/02 02:25:08;;;;;;;;;1.00;0.50;;;;;13.13;67.00;101777.25;4977819;28;47245;-76
2022/11/02 02:27:43;;;;;;;;;2.25;1.00;;;;;13.10;67.21;101778.19;4977907;28;45396;-75
2022/11/02 02:30:09;;;;;;;;;6.00;0.25;;;;;13.08;67.58;101785.22;4977949;28;45365;-76
2022/11/02 02:32:40;;;;;;;;;4.00;0.00;;;;;13.08;67.44;101785.22;4976734;28;45467;-75
2022/11/02 02:35:17;;;;;;;;;1.00;0.00;;;;;13.06;67.30;101778.31;4960197;28;45423;-77
2022/11/02 02:37:49;;;;;;;;;3.00;2.00;;;;;13.02;67.51;101787.97;4959781;28;45409;-76
2022/11/02 02:40:44;;;;;;;;;0.00;0.00;;;;;13.00;67.32;101783.66;4977721;28;45386;-76
2022/11/02 02:43:14;;;;;;;;;2.00;1.00;;;;;12.99;67.22;101793.25;4992938;28;45423;-76
2022/11/02 02:45:44;;;;;;;;;1.00;1.00;;;;;12.96;67.76;101782.88;4976497;28;45480;-76
2022/11/02 02:48:13;;;;;;;;;1.50;1.00;;;;;12.96;67.81;101799.44;4976329;28;45737;-76
2022/11/02 02:50:50;;;;;;;;;2.25;0.00;;;;;12.90;67.63;101790.84;4976157;28;45439;-76
2022/11/02 02:53:19;;;;;;;;;5.50;1.00;;;;;12.88;68.09;101795.25;4976330;28;45559;-76
2022/11/02 02:55:46;;;;;;;;;2.00;0.50;;;;;12.85;68.28;101796.19;4976115;28;46116;-76
2022/11/02 02:58:17;;;;;;;;;3.50;2.00;;;;;12.83;68.31;101789.25;4960639;28;45431;-76
2022/11/02 03:00:43;;;;;;;;;6.25;0.00;;;;;12.82;68.28;101798.00;4960160;28;45277;-76
2022/11/02 03:03:16;;;;;;;;;1.75;0.00;;;;;12.76;68.52;101802.47;4977437;28;45500;-76
2022/11/02 03:05:42;;;;;;;;;3.00;0.50;;;;;12.74;68.45;101804.25;4976794;28;45270;-76
2022/11/02 03:08:11;;;;;;;;;1.25;1.00;;;;;12.72;68.48;101797.31;4977186;28;45361;-76
2022/11/02 03:10:43;;;;;;;;;3.00;0.00;;;;;12.72;68.13;101805.16;4977242;28;45325;-76
2022/11/02 03:13:53;;;;;;;;;3.25;0.00;;;;;12.72;68.50;101803.44;4959868;28;45425;-75
2022/11/02 03:16:21;;;;;;;;;1.75;0.00;;;;;12.71;68.42;101806.06;4919229;28;46242;-76
2022/11/02 03:19:00;;;;;;;;;1.00;0.25;;;;;12.69;68.05;101810.47;4935636;28;45676;-75
2022/11/02 03:21:31;;;;;;;;;2.50;1.00;;;;;12.64;68.93;101818.38;4920150;28;45491;-76
2022/11/02 03:24:05;;;;;;;;;2.00;0.00;;;;;12.64;68.54;101812.31;4920095;28;45383;-76
2022/11/02 03:27:06;;;;;;;;;1.00;0.00;;;;;12.63;68.82;101810.56;4935825;28;46233;-76
2022/11/02 03:29:38;;;;;;;;;4.75;0.50;;;;;12.63;69.26;101829.75;4931078;28;45441;-76
2022/11/02 03:32:12;;;;;;;;;2.00;1.00;;;;;12.61;69.04;101820.19;4920024;28;45400;-76
2022/11/02 03:34:48;;;;;;;;;2.00;0.00;;;;;12.59;68.87;101828.06;4919591;28;45437;-76
2022/11/02 03:37:33;;;;;;;;;3.00;0.25;;;;;12.62;68.52;101827.16;4919583;28;46703;-76
2022/11/02 03:40:10;;;;;;;;;2.50;1.00;;;;;12.60;68.80;101829.78;4916459;28;45441;-75
2022/11/02 03:42:36;;;;;;;;;3.00;0.00;;;;;12.59;68.55;101833.28;4900865;28;45564;-76
2022/11/02 03:45:10;;;;;;;;;0.75;0.25;;;;;12.57;68.85;101837.69;4915962;28;60919;-75
2022/11/02 03:47:36;;;;;;;;;0.75;0.00;;;;;12.59;68.92;101844.59;4916429;28;47412;-76
2022/11/02 03:50:04;;;;;;;;;2.00;1.00;;;;;12.59;68.88;101841.13;4915282;28;69633;-76
2022/11/02 03:52:31;;;;;;;;;5.25;1.00;;;;;12.58;69.36;101858.53;4925876;28;45378;-76
2022/11/02 03:55:03;;;;;;;;;2.00;0.00;;;;;12.58;68.92;101868.16;4957252;28;45306;-76
2022/11/02 03:57:34;;;;;;;;;1.50;0.75;;;;;12.55;68.88;101865.56;4969462;28;46796;-76
2022/11/02 04:00:26;;;;;;;;;1.00;1.00;;;;;12.53;69.08;101870.81;4975311;28;45377;-76
2022/11/02 04:02:54;;;;;;;;;5.00;0.00;;;;;12.51;69.11;101869.16;4956767;28;45334;-76
2022/11/02 04:05:27;;;;;;;;;1.00;0.75;;;;;12.50;68.97;101881.34;4959056;28;45453;-76
2022/11/02 04:14:36;;;;;;;;;1.50;0.00;;;;;12.46;69.14;101886.66;4975405;28;45393;-76
2022/11/02 04:16:07;;;;;;;;;6.75;2.00;;;;;12.45;68.99;101887.56;4976348;28;45326;-76
2022/11/02 04:21:16;;;;;;;;;3.50;0.00;;;;;12.46;69.27;101903.19;4976285;28;45561;-76
2022/11/02 04:26:26;;;;;;;;;1.50;1.00;;;;;12.47;69.10;101911.88;4961545;28;45356;-76
2022/11/02 04:28:52;;;;;;;;;3.25;1.00;;;;;12.42;68.73;101908.47;4976602;28;46544;-76
2022/11/02 04:31:17;;;;;;;;;1.50;0.00;;;;;12.44;68.86;101920.63;4978649;28;70866;-76
2022/11/02 04:33:42;;;;;;;;;2.00;0.50;;;;;12.44;68.66;101919.75;4978312;28;68131;-76
2022/11/02 04:36:08;;;;;;;;;1.75;1.00;;;;;12.45;68.70;101921.50;4961854;28;45616;-76
2022/11/02 04:38:39;;;;;;;;;0.50;0.25;;;;;12.47;68.64;101928.41;4979542;28;45731;-76
2022/11/02 04:43:49;;;;;;;;;3.00;1.00;;;;;12.40;68.53;101927.63;4978568;28;45421;-76
2022/11/02 04:46:14;;;;;;;;;1.00;0.00;;;;;12.42;68.51;101929.38;4978028;28;45352;-76
2022/11/02 04:48:40;;;;;;;;;4.00;0.75;;;;;12.38;68.12;101931.19;4978361;28;75594;-75
2022/11/02 04:51:05;;;;;;;;;4.00;1.00;;;;;12.39;68.58;101939.00;4978481;28;68908;-75
2022/11/02 04:53:30;;;;;;;;;1.50;0.75;;;;;12.39;68.52;101943.34;4978232;28;67264;-75
2022/11/02 04:55:56;;;;;;;;;0.00;0.00;;;;;12.37;68.28;101955.59;4978719;28;57277;-75
2022/11/02 04:58:21;;;;;;;;;2.25;0.25;;;;;12.30;68.12;101948.75;4978203;28;70798;-75
2022/11/02 05:00:46;;;;;;;;;2.00;1.00;;;;;12.35;68.42;101954.72;4977811;28;73074;-75
2022/11/02 05:03:12;;;;;;;;;0.50;0.50;;;;;12.33;68.20;101944.31;4960977;28;65832;-75
2022/11/02 05:05:37;;;;;;;;;1.50;0.00;;;;;12.33;68.56;101949.53;4978103;28;70542;-75
2022/11/02 05:08:02;;;;;;;;;3.50;1.00;;;;;12.32;68.41;101950.41;4977962;28;75611;-75
2022/11/02 05:10:29;;;;;;;;;4.00;2.25;;;;;12.32;68.35;101949.56;4979067;28;45721;-75
2022/11/02 05:12:58;;;;;;;;;3.00;0.75;;;;;12.31;68.27;101963.50;4961645;28;45321;-75
2022/11/02 05:15:24;;;;;;;;;4.50;1.00;;;;;12.29;68.08;101963.50;4977509;28;45424;-75
2022/11/02 05:17:50;;;;;;;;;1.50;1.00;;;;;12.28;68.37;101966.19;4977486;28;46625;-74
2022/11/02 05:20:15;;;;;;;;;1.50;1.00;;;;;12.32;68.68;101967.84;4977730;28;72514;-76
2022/11/02 05:22:41;;;;;;;;;2.50;0.00;;;;;12.35;68.55;101979.09;4960609;28;66794;-75
2022/11/02 05:25:07;;;;;;;;;2.00;1.25;;;;;12.34;68.34;101984.34;4978923;28;45391;-75
2022/11/02 05:27:33;;;;;;;;;2.00;0.25;;;;;12.32;67.92;101986.97;4978709;28;46689;-75
2022/11/02 05:29:58;;;;;;;;;3.00;0.75;;;;;12.32;68.40;101991.34;4978132;28;47848;-75
2022/11/02 05:32:24;;;;;;;;;2.75;1.00;;;;;12.34;68.03;101986.94;4978688;28;45389;-75
2022/11/02 05:34:49;;;;;;;;;2.00;0.00;;;;;12.32;68.40;101991.34;4961205;28;45382;-75
2022/11/02 05:37:15;;;;;;;;;3.75;1.00;;;;;12.31;68.39;101993.09;4960146;28;66944;-75
2022/11/02 05:39:40;;;;;;;;;0.00;0.00;;;;;12.31;68.21;102000.03;4960776;28;45289;-75
2022/11/02 05:42:05;;;;;;;;;2.75;1.00;;;;;12.26;68.34;101999.25;4977782;28;60852;-75
2022/11/02 05:44:31;;;;;;;;;3.75;1.00;;;;;12.20;68.19;102008.03;4977984;28;49417;-75
2022/11/02 05:46:56;;;;;;;;;1.00;0.25;;;;;12.15;68.58;102002.91;4978126;28;54953;-75
2022/11/02 05:49:22;;;;;;;;;2.00;0.75;;;;;12.15;68.41;101996.84;4977296;28;45530;-75
2022/11/02 05:51:48;;;;;;;;;3.00;0.00;;;;;12.14;68.46;102002.91;4977603;28;66026;-75
2022/11/02 05:54:13;;;;;;;;;2.00;1.00;;;;;12.13;68.34;101996.84;4978351;28;45340;-75
2022/11/02 05:56:39;;;;;;;;;1.50;1.50;;;;;12.16;68.60;101995.94;4978044;28;47246;-75
2022/11/02 05:59:04;;;;;;;;;3.25;1.00;;;;;12.11;68.58;101996.00;4977925;28;45367;-75
2022/11/02 06:01:29;;;;;;;;;3.50;0.75;;;;;12.07;68.81;101996.94;4978281;28;45279;-75
2022/11/02 06:03:55;;;;;;;;;1.50;1.00;;;;;12.08;68.51;101983.00;4959862;28;68151;-75
2022/11/02 06:06:20;;;;;;;;;10.00;2.00;;;;;12.09;68.76;101989.97;4960432;28;45409;-75
2022/11/02 06:08:45;;;;;;;;;5.50;1.00;;;;;12.07;68.61;101994.34;4978126;28;45360;-75
2022/11/02 06:11:12;;;;;;;;;2.75;1.00;;;;;12.09;68.79;101991.69;4977351;28;63709;-76
2022/11/02 06:13:38;;;;;;;;;3.25;1.00;;;;;12.11;68.80;101995.13;4977860;28;45448;-75
2022/11/02 06:16:05;;;;;;;;;1.75;1.00;;;;;12.12;68.66;102002.09;4977830;28;46595;-75
2022/11/02 06:18:30;;;;;;;;;2.00;0.50;;;;;12.13;68.31;102001.22;4960517;28;45486;-75
2022/11/02 06:20:57;;;;;;;;;0.75;0.25;;;;;12.16;68.60;102008.97;4960595;28;45439;-76
2022/11/02 06:23:26;;;;;;;;;2.50;2.00;;;;;12.18;69.19;102012.44;4976804;28;45532;-76
2022/11/02 06:25:52;;;;;;;;;1.00;1.00;;;;;12.19;68.27;102009.78;4976457;28;47275;-76
2022/11/02 06:28:18;;;;;;;;;2.00;1.25;;;;;12.20;68.50;102019.38;4977434;28;45792;-76
2022/11/02 06:30:43;;;;;;;;;2.00;0.50;;;;;12.19;68.11;102028.06;4977894;28;45388;-76
2022/11/02 06:33:09;;;;;;;;;1.50;0.00;;;;;12.18;68.08;102034.19;4977064;28;60458;-75
2022/11/02 06:35:34;;;;;;;;;1.00;0.00;;;;;12.15;68.46;102039.44;4976595;28;71264;-76
2022/11/02 06:37:59;;;;;;;;;2.25;2.00;;;;;12.09;68.49;102034.31;4976962;28;59824;-76
2022/11/02 06:40:25;;;;;;;;;2.75;1.00;;;;;12.04;68.74;102017.88;4977688;28;45376;-76
2022/11/02 06:42:55;;;;;;;;;4.25;1.00;;;;;12.00;68.68;102022.25;4976812;28;53738;-75
2022/11/02 06:45:20;;;;;;;;;7.00;3.00;;;;;11.99;68.90;102027.50;4977495;28;46107;-76
2022/11/02 06:47:47;;;;;;;;;1.75;0.75;;;;;11.99;69.03;102030.13;4991618;28;73075;-75
2022/11/02 06:50:12;;;;;;;;;3.50;0.25;;;;;11.97;69.10;102039.72;4976469;28;45274;-76
2022/11/02 06:52:43;;;;;;;;;3.25;1.25;;;;;11.98;69.15;102044.91;4976468;28;45439;-75
2022/11/02 06:55:08;;;;;;;;;1.75;1.00;;;;;12.03;69.17;102052.66;4977340;28;45469;-76
2022/11/02 06:57:37;;;;;;;;;1.00;1.00;;;;;12.05;68.66;102044.81;4976042;28;66615;-76
2022/11/02 07:00:08;;;;;;;;;2.25;1.75;;;;;12.08;68.63;102061.31;4977374;28;45313;-75
2022/11/02 07:02:34;;;;;;;;;3.00;1.00;;;;;12.04;68.93;102064.84;4959887;28;45421;-76
2022/11/02 07:04:59;;;;;;;;;1.25;1.00;;;;;12.00;69.05;102055.34;4959694;28;45431;-76
2022/11/02 07:07:24;;;;;;;;;1.00;1.00;;;;;12.00;69.31;102058.81;4976099;28;69674;-75
2022/11/02 07:09:50;;;;;;;;;2.25;1.25;;;;;12.01;69.40;102062.25;4977327;28;45318;-76
2022/11/02 07:12:15;;;;;;;;;7.00;2.25;;;;;12.02;69.36;102056.19;4975830;28;66444;-75
2022/11/02 07:14:40;;;;;;;;;5.50;2.00;;;;;12.01;69.26;102060.50;4976007;28;74914;-75
2022/11/02 07:17:06;;;;;;;;;6.50;0.50;;;;;11.97;70.19;102052.75;4977026;28;45320;-75
2022/11/02 07:19:31;;;;;;;;;2.00;1.00;;;;;12.00;69.86;102065.78;4959367;28;45446;-76
2022/11/02 07:21:57;;;;;;;;;3.00;1.25;;;;;12.01;69.63;102065.72;4977186;28;45231;-76
2022/11/02 07:24:22;;;;;;;;;1.75;1.75;;;;;12.01;69.72;102062.25;4975336;28;45435;-76
2022/11/02 07:26:49;;;;;;;;;1.00;1.00;;;;;12.02;69.70;102064.00;4975724;28;68116;-76
2022/11/02 07:29:17;;;;;;;;;1.00;1.00;;;;;12.05;69.68;102065.69;4959197;28;45406;-76
2022/11/02 07:31:43;;;;;;;;;2.25;1.00;;;;;12.03;69.94;102072.69;4976731;28;45415;-75
2022/11/02 07:34:08;;;;;;;;;3.25;1.00;;;;;12.01;69.84;102070.94;4976872;28;46192;-76
2022/11/02 07:36:34;;;;;;;;;6.00;1.00;;;;;12.01;69.92;102070.94;4976618;28;45466;-76
2022/11/02 07:38:59;;;;;;;;;4.50;1.50;;;;;12.04;70.08;102074.44;4976286;28;56684;-76
2022/11/02 07:41:24;;;;;;;;;4.00;2.00;;;;;12.01;69.78;102064.88;4975597;28;63162;-76
2022/11/02 07:43:50;;;;;;;;;5.00;2.00;;;;;12.08;69.84;102076.97;4975422;28;73554;-76
2022/11/02 07:46:15;;;;;;;;;2.00;0.00;;;;;12.08;69.94;102071.75;4976721;28;45362;-76
2022/11/02 07:48:41;;;;;;;;;1.00;1.00;;;;;12.10;69.84;102076.94;4991814;28;45395;-76
2022/11/02 07:51:07;;;;;;;;;6.25;1.50;;;;;12.16;69.67;102080.31;4975883;28;67061;-75
2022/11/02 07:53:32;;;;;;;;;2.00;1.00;;;;;12.16;69.96;102077.69;4976447;28;46470;-76
2022/11/02 07:56:02;;;;;;;;;4.00;3.00;;;;;12.18;69.86;102078.56;4976137;28;45358;-75
2022/11/02 07:58:27;;;;;;;;;6.75;2.00;;;;;12.24;69.82;102080.22;4975439;28;45483;-76
2022/11/02 08:00:53;;;;;;;;;6.00;2.00;;;;;12.26;69.68;102075.84;4976483;28;45260;-75
2022/11/02 08:03:18;;;;;;;;;7.50;1.00;;;;;12.28;69.70;102084.50;4975809;28;45451;-75
2022/11/02 08:05:44;;;;;;;;;3.00;1.00;;;;;12.33;69.46;102077.47;4976406;28;45337;-76
2022/11/02 08:08:17;;;;;;;;;6.75;1.25;;;;;12.36;69.30;102089.63;4976392;28;45317;-76
2022/11/02 08:10:44;;;;;;;;;5.00;1.50;;;;;12.41;69.57;102077.38;4974952;28;45618;-75
2022/11/02 08:13:29;;;;;;;;;4.50;1.75;;;;;12.47;69.52;102082.47;4974852;28;46740;-75
2022/11/02 08:15:55;;;;;;;;;2.25;1.50;;;;;12.52;69.09;102085.91;4976221;28;45447;-75
2022/11/02 08:18:25;;;;;;;;;3.25;2.50;;;;;12.57;68.98;102085.81;4976189;28;45413;-75
2022/11/02 08:20:51;;;;;;;;;1.75;0.75;;;;;12.62;69.23;102076.16;4976297;28;45421;-75
2022/11/02 08:23:18;;;;;;;;;1.50;0.75;;;;;12.70;69.38;102076.91;4974952;28;46134;-76
2022/11/02 08:25:44;;;;;;;;;1.75;1.00;;;;;12.82;69.10;102085.44;4974558;28;45571;-76
2022/11/02 08:28:16;;;;;;;;;1.25;1.00;;;;;12.86;68.94;102087.94;4976187;28;45348;-76
2022/11/02 08:30:41;;;;;;;;;4.50;1.00;;;;;12.93;68.98;102086.09;4958638;28;45397;-76
2022/11/02 08:33:11;;;;;;;;;5.00;2.50;;;;;12.95;68.02;102090.41;4974835;28;74968;-76
2022/11/02 08:35:37;;;;;;;;;8.25;1.00;;;;;12.95;68.40;102087.78;4975769;28;46463;-75
2022/11/02 08:38:03;;;;;;;;;3.00;1.00;;;;;13.00;67.81;102081.63;4975625;28;45426;-76
2022/11/02 08:40:29;;;;;;;;;2.00;2.00;;;;;13.05;67.44;102083.25;4974987;28;45482;-75
2022/11/02 08:42:58;;;;;;;;;2.00;1.00;;;;;13.09;67.27;102089.28;4957631;28;63127;-76
2022/11/02 08:45:24;;;;;;;;;2.00;0.00;;;;;13.15;67.45;102084.84;4975888;28;45375;-76
2022/11/02 08:47:49;;;;;;;;;6.25;1.25;;;;;13.22;67.90;102087.31;4976035;28;45350;-75
2022/11/02 08:50:15;;;;;;;;;3.25;1.00;;;;;13.25;66.83;102082.91;4974998;28;68813;-75
2022/11/02 08:52:40;;;;;;;;;3.75;1.00;;;;;13.29;66.86;102088.94;4975305;28;47153;-75
2022/11/02 08:55:06;;;;;;;;;1.75;1.00;;;;;13.35;66.52;102094.97;4958486;28;45338;-76
2022/11/02 08:57:31;;;;;;;;;3.25;1.00;;;;;13.36;66.20;102094.06;4957983;28;45361;-75
2022/11/02 08:59:56;;;;;;;;;6.50;1.50;;;;;13.41;65.85;102091.38;4975268;28;55982;-76
2022/11/02 09:02:22;;;;;;;;;4.00;2.75;;;;;13.44;66.00;102086.06;4974487;28;75677;-75
2022/11/02 09:04:47;;;;;;;;;4.00;1.00;;;;;13.50;65.50;102093.81;4974687;28;72247;-75
2022/11/02 09:07:12;;;;;;;;;4.00;0.00;;;;;13.55;65.50;102091.94;4957069;28;68102;-75
2022/11/02 09:09:38;;;;;;;;;3.25;0.00;;;;;13.64;65.23;102087.44;4957435;28;69100;-75
2022/11/02 09:12:03;;;;;;;;;14.00;4.00;;;;;13.69;64.85;102099.53;4975532;28;46219;-76
2022/11/02 09:14:28;;;;;;;;;3.00;1.00;;;;;13.70;64.97;102082.91;4957952;28;48395;-76
2022/11/02 09:16:54;;;;;;;;;3.75;1.75;;;;;13.75;64.59;102083.69;4960825;28;49806;-75
2022/11/02 09:19:19;;;;;;;;;2.00;2.00;;;;;13.79;64.28;102087.09;4978197;28;64831;-76
2022/11/02 09:21:44;;;;;;;;;4.00;1.00;;;;;13.80;64.81;102078.38;4977069;28;47991;-75
2022/11/02 09:24:10;;;;;;;;;1.00;1.00;;;;;13.87;64.33;102081.72;4961254;28;45482;-75
2022/11/02 09:26:35;;;;;;;;;4.25;2.00;;;;;13.88;63.77;102071.22;4977934;28;69351;-76
2022/11/02 09:29:00;;;;;;;;;6.00;2.00;;;;;13.91;63.84;102075.50;4977810;28;68745;-75
2022/11/02 09:31:28;;;;;;;;;8.75;1.00;;;;;13.99;64.37;102071.00;4978361;28;46098;-76
2022/11/02 09:33:54;;;;;;;;;1.25;1.00;;;;;14.07;64.50;102065.56;4978611;28;45618;-75
2022/11/02 09:36:19;;;;;;;;;6.00;1.00;;;;;14.14;64.09;102070.63;4960645;28;45390;-76
2022/11/02 09:38:45;;;;;;;;;2.00;0.25;;;;;14.21;64.10;102063.50;4978666;28;45571;-76
2022/11/02 09:41:20;;;;;;;;;7.75;2.00;;;;;14.30;63.12;102065.91;4973087;28;54434;-76
2022/11/02 09:43:51;;;;;;;;;4.25;2.00;;;;;14.39;63.37;102063.97;4977227;28;45343;-76
2022/11/02 09:46:24;;;;;;;;;2.75;1.00;;;;;14.48;63.07;102069.84;4978602;28;45460;-76
2022/11/02 09:48:57;;;;;;;;;3.25;1.25;;;;;14.57;62.22;102063.56;4977465;28;45517;-76
2022/11/02 09:51:35;;;;;;;;;2.00;1.00;;;;;14.65;62.41;102066.00;4978079;28;46867;-76
2022/11/02 09:54:28;;;;;;;;;4.00;1.00;;;;;14.72;61.98;102070.19;4977281;28;45692;-75
2022/11/02 09:56:56;;;;;;;;;0.50;0.50;;;;;14.84;61.62;102062.03;4970947;28;45290;-76
2022/11/02 09:59:24;;;;;;;;;4.75;2.50;;;;;14.94;61.15;102072.28;4977159;28;45471;-76
2022/11/02 10:02:04;;;;;;;;;3.00;1.00;;;;;14.90;60.83;102063.63;4960697;28;46475;-76
2022/11/02 10:04:37;;;;;;;;;3.00;1.50;;;;;14.90;61.16;102069.72;4977019;28;45387;-76
2022/11/02 10:07:18;;;;;;;;;7.25;1.25;;;;;14.89;60.91;102069.75;4960372;28;45564;-76
2022/11/02 10:09:56;;;;;;;;;13.00;2.75;;;;;14.92;61.06;102069.69;4977086;28;45371;-76
2022/11/02 10:12:28;;;;;;;;;3.00;2.00;;;;;14.95;61.24;102059.13;4960488;28;45618;-76
2022/11/02 10:15:09;;;;;;;;;9.25;1.00;;;;;15.01;62.35;102063.34;4978052;28;45751;-76
2022/11/02 10:17:37;;;;;;;;;4.50;2.00;;;;;15.10;61.99;102069.19;4976849;28;45389;-76
2022/11/02 10:20:32;;;;;;;;;1.00;1.00;;;;;15.25;61.98;102065.31;4976376;28;45482;-76
2022/11/02 10:23:03;;;;;;;;;7.50;1.50;;;;;15.36;60.52;102066.75;4960348;28;47441;-76
2022/11/02 10:25:28;;;;;;;;;2.50;0.50;;;;;15.43;60.24;102069.19;4976723;28;45653;-76
2022/11/02 10:28:03;;;;;;;;;4.25;1.00;;;;;15.50;59.74;102067.22;4977084;28;62051;-76
2022/11/02 10:30:29;;;;;;;;;9.25;1.50;;;;;15.55;59.72;102057.47;4960713;28;45457;-75
2022/11/02 10:32:55;;;;;;;;;1.00;1.00;;;;;15.66;58.92;102065.03;4977662;28;46232;-76
2022/11/02 10:35:29;;;;;;;;;3.75;2.00;;;;;15.74;60.11;102067.47;4976248;28;73194;-75
2022/11/02 10:38:06;;;;;;;;;1.75;1.00;;;;;15.89;58.87;102074.03;4960408;28;45461;-75
2022/11/02 10:40:57;;;;;;;;;3.00;1.50;;;;;16.09;58.19;102076.91;4977550;28;45347;-76
2022/11/02 10:43:56;;;;;;;;;2.00;1.75;;;;;16.26;59.02;102071.97;4976313;28;45678;-76
2022/11/02 10:46:56;;;;;;;;;2.00;1.25;;;;;16.42;57.01;102077.63;4977575;28;45375;-76
2022/11/02 10:49:53;;;;;;;;;5.50;1.25;;;;;16.42;56.29;102072.38;4977370;28;45732;-76
2022/11/02 10:52:18;;;;;;;;;5.00;1.50;;;;;16.41;56.11;102064.53;4976319;28;45369;-76
2022/11/02 10:54:44;;;;;;;;;1.75;0.25;;;;;16.42;56.02;102067.09;4977404;28;46118;-75
2022/11/02 10:57:14;;;;;;;;;1.25;1.00;;;;;16.43;55.91;102058.31;4969245;28;45531;-76
2022/11/02 10:59:39;;;;;;;;;7.50;3.00;;;;;16.65;56.28;102060.22;4976253;28;45363;-76
2022/11/02 11:02:12;;;;;;;;;4.25;2.25;;;;;17.54;54.58;102051.88;4976009;28;45455;-76
2022/11/02 11:04:38;;;;;;;;;5.00;1.75;;;;;18.61;53.48;102050.34;4976914;28;45345;-76
2022/11/02 11:07:06;;;;;;;;;4.50;2.00;;;;;19.74;52.25;102044.50;4943651;28;45724;-75
2022/11/02 11:09:46;;;;;;;;;4.00;3.00;;;;;20.95;49.50;102045.66;4976052;28;45399;-76
2022/11/02 11:12:32;;;;;;;;;3.00;0.00;;;;;22.02;47.94;102046.94;4975838;28;45491;-75
2022/11/02 11:14:59;;;;;;;;;4.00;2.50;;;;;22.85;44.06;102054.56;4959577;28;45442;-77
2022/11/02 11:17:32;;;;;;;;;1.00;1.00;;;;;23.41;42.76;102044.09;4975762;28;45317;-76
2022/11/02 11:19:57;;;;;;;;;9.00;2.75;;;;;23.87;42.19;102041.19;4975891;28;45361;-76
2022/11/02 11:22:34;;;;;;;;;2.00;2.00;;;;;24.43;42.42;102042.88;4975975;28;70569;-76
2022/11/02 11:25:11;;;;;;;;;4.50;2.00;;;;;25.28;41.23;102048.66;4959461;28;47144;-76
2022/11/02 11:27:50;;;;;;;;;3.50;2.25;;;;;25.89;39.62;102043.34;4976871;28;45317;-76
2022/11/02 11:30:28;;;;;;;;;3.00;2.00;;;;;26.94;39.05;102048.88;4959546;28;45327;-77
2022/11/02 11:32:54;;;;;;;;;3.75;1.25;;;;;27.42;35.70;102036.16;4976450;28;45455;-77
2022/11/02 11:35:21;;;;;;;;;2.00;2.00;;;;;27.59;34.07;102042.81;4975380;28;45294;-77
2022/11/02 11:37:59;;;;;;;;;2.50;1.00;;;;;27.67;34.14;102028.81;4958485;28;45418;-77
2022/11/02 11:40:26;;;;;;;;;2.00;2.00;;;;;27.89;34.58;102027.94;4976732;28;45420;-77
2022/11/02 11:42:56;;;;;;;;;0.75;0.75;;;;;28.41;33.89;102022.72;4975631;28;45425;-76
2022/11/02 11:45:26;;;;;;;;;3.00;1.25;;;;;29.14;34.49;102018.28;4976552;28;46322;-77
2022/11/02 11:48:01;;;;;;;;;4.00;1.25;;;;;30.16;32.57;102016.34;4975191;28;45435;-77